Indian Creek, Iowa
Current Conditions -  °F | °C
As of 12:32 PM on Sunday 21 Dec 2014 (Local Time) from KCID Reporting Station
Overcast Overcast  
Wind Chill: 29°   Ceiling: 1500
Heat Index: 38°   Visibility: 7mi
Dew Point: 35°   Wind: 15mph
Humidity: 89%   Direction: 170°S
Pressure: 29.95"   Gusts: 23mph
Location:  42.0672°N, 91.5782°W
Report Text: KCID 211832Z 17013G20KT 7SM OVC015 03/02 A2995 RMK AO2 T00330017 $
Loading
Personal Weather Stations






























Interactive Weather Map New forecast layout! Learn more

10-Day Weather Forecast

Advertisements
Track Severe Weather on mobile